ADDS METAR Data INFO
IDs: Format: Raw Decoded Include TAF

Data at: 2211 UTC 18 Oct 2017

METAR for:KFPK (Charotte/Beach Fld, MI, US)
Text:KFPK 182155Z AUTO 19008KT 10SM CLR 19/02 A3007 RMK AO2 T01910018
Temperature: 19.1°C ( 66°F)
Dewpoint: 1.8°C ( 35°F) [RH = 31%]
Pressure (altimeter):30.07 inches Hg (1018.4 mb)
Winds:from the S (190 degrees) at 9 MPH (8 knots; 4.1 m/s)
Visibility:10 or more sm (16+ km)
Ceiling:at least 12,000 feet AGL
Clouds:sky clear below 12,000 feet AGL
QC Flag:automated observation with no human augmentation

TAF for:KFPK (Charotte/Beach Fld, MI, US)
Text:No data found

METAR for:KLAN (Lansing/Capital City, MI, US)
Text:KLAN 182153Z 19009KT 10SM CLR 19/02 A3008 RMK AO2 SLP186 T01890017
Temperature: 18.9°C ( 66°F)
Dewpoint: 1.7°C ( 35°F) [RH = 32%]
Pressure (altimeter):30.08 inches Hg (1018.7 mb) [Sea level pressure: 1018.6 mb]
Winds:from the S (190 degrees) at 10 MPH (9 knots; 4.6 m/s)
Visibility:10 or more sm (16+ km)
Ceiling:at least 12,000 feet AGL
Clouds:sky clear below 12,000 feet AGL

TAF for:KLAN (Lansing/Capital City, MI, US) issued at 1736 UTC 18 Oct 2017
Text:KLAN 181736Z 1818/1918 21013G21KT P6SM SKC
Forecast period:1800 to 2300 UTC 18 October 2017
Forecast type:FROM: standard forecast or significant change
Winds:from the SSW (210 degrees) at 15 MPH (13 knots; 6.7 m/s) gusting to 24 MPH (21 knots; 10.8 m/s)
Visibility:6 or more sm (10+ km)
Ceiling:at least 12,000 feet AGL
Clouds:clear skies
Text:FM182300 19010KT P6SM SKC
Forecast period:2300 UTC 18 October 2017 to 1400 UTC 19 October 2017
Forecast type:FROM: standard forecast or significant change
Winds:from the S (190 degrees) at 12 MPH (10 knots; 5.1 m/s)
Visibility:6 or more sm (10+ km)
Ceiling:at least 12,000 feet AGL
Clouds:clear skies
Text:FM191400 26009KT P6SM SCT250
Forecast period:1400 to 1800 UTC 19 October 2017
Forecast type:FROM: standard forecast or significant change
Winds:from the W (260 degrees) at 10 MPH (9 knots; 4.6 m/s)
Visibility:6 or more sm (10+ km)
Ceiling:at least 12,000 feet AGL
Clouds: scattered clouds at 25000 feet AGL